Flight Track Log - Related Links

Times and Time Zones

All times are in EDT time to prevent confusion due to time zone crossing. See the VRT51 flight status page for this flight to view local times or setup timezone preferences in your user account.

Time Position Orientation Groundspeed Altitude Reporting Facility
EDT Latitude Longitude Course Direction KTS MPH feet Rate Location/Type
Sat 01:51:50 AM 44.9000 -93.0167 115° Southeast 211 243 2,300  Level Minneapolis TRACON
Sat 01:52:50 AM 44.8500 -92.9500 137° Southeast 255 293 5,100 3,000 Climbing Minneapolis TRACON
Sat 01:54:02 AM 44.7883 -92.8569 133° Southeast 267 307 8,900 3,474 Climbing Minneapolis Center
Sat 01:55:03 AM 44.7322 -92.7819 136° Southeast 276 318 12,800 3,917 Climbing Minneapolis Center
Sat 01:56:03 AM 44.6608 -92.7256 151° Southeast 294 338 16,800 3,800 Climbing Minneapolis Center
Sat 01:57:00 AM 44.3739 -92.5904 115° Southeast  Level Estimated
Sat 01:57:03 AM 44.5881 -92.6653 149° Southeast 302 348 20,400  Level Minneapolis Center
Sat 01:58:03 AM 44.5097 -92.5981 149° Southeast 317 365 23,000 2,500 Climbing Minneapolis Center
Sat 01:59:03 AM 44.4233 -92.5256 149° Southeast 350 403 25,400 2,550 Climbing Minneapolis Center
Sat 02:00:03 AM 44.3358 -92.4522 149° Southeast 364 419 28,100 2,132 Climbing Minneapolis Center
Sat 02:01:04 AM 44.2472 -92.3781 149° Southeast 369 425 29,700 1,537 Climbing Minneapolis Center
Sat 02:02:04 AM 44.1575 -92.3017 149° Southeast 378 435 31,200 1,650 Climbing Minneapolis Center
Sat 02:03:04 AM 44.0669 -92.2256 149° Southeast 380 437 33,000 1,900 Climbing Minneapolis Center
Sat 02:04:04 AM 43.9758 -92.1503 149° Southeast 380 437 35,000 1,550 Climbing Minneapolis Center
Sat 02:05:04 AM 43.8883 -92.0756 148° Southeast 372 428 36,100 1,200 Climbing Minneapolis Center
Sat 02:06:04 AM 43.7964 -92.0011 150° Southeast 380 437 37,400 1,240 Climbing Minneapolis Center
Sat 02:07:05 AM 43.7064 -91.9247 148° Southeast 382 440 38,600 1,041 Climbing Minneapolis Center
Sat 02:08:05 AM 43.6178 -91.8517 149° Southeast 376 433 39,500 800 Climbing Minneapolis Center
Sat 02:09:05 AM 43.5286 -91.7783 149° Southeast 376 433 40,200 600 Climbing Minneapolis Center
Sat 02:10:05 AM 43.4364 -91.7064 150° Southeast 381 438 40,700 400 Climbing Minneapolis Center
Sat 02:11:05 AM 43.3422 -91.6292 149° Southeast 392 451 41,000 150 Climbing Minneapolis Center
Sat 02:12:05 AM 43.2450 -91.5486 149° Southeast 404 465 41,000  Level Minneapolis Center
Sat 02:13:06 AM 43.1431 -91.4669 150° Southeast 418 481 41,000  Level Minneapolis Center
Sat 02:14:06 AM 43.0408 -91.3842 149° Southeast 425 489 41,000  Level Minneapolis Center
Sat 02:15:06 AM 42.9381 -91.3022 150° Southeast 426 490 41,000  Level Minneapolis Center
Sat 02:16:06 AM 42.8361 -91.2203 149° Southeast 425 489 41,000  Level Minneapolis Center
Sat 02:17:06 AM 42.7333 -91.1403 150° Southeast 424 488 41,000  Level Minneapolis Center
Sat 02:18:07 AM 42.6308 -91.0589 150° Southeast 426 490 41,000  Level Minneapolis Center
Sat 02:19:07 AM 42.5281 -90.9797 150° Southeast 426 490 41,000  Level Minneapolis Center
Sat 02:20:07 AM 42.4144 -90.8883 149° Southeast 423 487 41,000  Level Minneapolis Center
Sat 02:21:26 AM 42.2869 -90.7892 150° Southeast 426 490 41,000  Level Chicago Center
Sat 02:22:26 AM 42.1847 -90.7094 150° Southeast 427 491 41,000  Level Chicago Center
Sat 02:23:26 AM 42.0822 -90.6297 150° Southeast 428 493 41,000  Level Chicago Center
Sat 02:24:26 AM 41.9794 -90.5497 150° Southeast 430 495 41,000  Level Chicago Center
Sat 02:25:27 AM 41.8736 -90.4692 150° Southeast 438 504 41,000  Level Chicago Center
Sat 02:26:27 AM 41.7661 -90.3875 150° Southeast 435 501 41,000  Level Chicago Center
Sat 02:27:27 AM 41.6622 -90.3078 150° Southeast 431 496 41,000  Level Chicago Center
Sat 02:28:27 AM 41.5581 -90.2281 150° Southeast 432 497 41,000  Level Chicago Center
Sat 02:29:27 AM 41.4542 -90.1489 150° Southeast 430 495 41,000  Level Chicago Center
Sat 02:30:27 AM 41.3497 -90.0706 151° Southeast 431 496 41,000  Level Chicago Center
Sat 02:31:27 AM 41.2467 -89.9911 150° Southeast 429 494 41,000  Level Chicago Center
Sat 02:32:28 AM 41.1431 -89.9139 151° Southeast 426 490 41,000  Level Chicago Center
Sat 02:33:28 AM 41.0392 -89.8364 151° Southeast 427 491 41,000  Level Chicago Center
Sat 02:34:28 AM 40.9422 -89.7636 150° Southeast 424 488 41,000  Level Chicago Center
Sat 02:35:28 AM 40.8378 -89.6867 151° Southeast 430 495 41,000  Level Chicago Center
Sat 02:36:28 AM 40.7339 -89.6103 151° Southeast 431 496 41,000  Level Chicago Center
Sat 02:37:28 AM 40.6153 -89.5222 151° Southeast 431 496 41,000  Level Chicago Center
Sat 02:38:28 AM 40.5097 -89.4447 151° Southeast 430 495 41,000  Level Chicago Center
Sat 02:39:28 AM 40.4039 -89.3683 151° Southeast 433 498 41,000  Level Chicago Center
Sat 02:40:29 AM 40.2983 -89.2914 151° Southeast 433 498 41,000  Level Chicago Center
Sat 02:41:29 AM 40.1897 -89.2122 151° Southeast 440 506 41,000  Level Chicago Center
Sat 02:42:23 AM 40.1050 -89.1511 151° Southeast 438 504 41,000  Level Kansas City Center
Sat 02:43:23 AM 39.9981 -89.0742 151° Southeast 439 505 41,000  Level Kansas City Center
Sat 02:44:24 AM 39.8900 -88.9967 151° Southeast 442 509 41,000  Level Kansas City Center
Sat 02:45:22 AM 39.7825 -88.9194 151° Southeast 442 509 41,000  Level Kansas City Center
Sat 02:46:22 AM 39.6736 -88.8419 151° Southeast 444 511 41,000  Level Kansas City Center
Sat 02:47:23 AM 39.5650 -88.7642 151° Southeast 446 513 41,000  Level Kansas City Center
Sat 02:48:24 AM 39.4550 -88.6878 152° Southeast 448 516 41,000  Level Kansas City Center
Sat 02:49:25 AM 39.3411 -88.6072 151° Southeast 446 513 41,000  Level Kansas City Center
Sat 02:50:26 AM 39.2411 -88.5347 151° Southeast 449 517 41,000  Level Kansas City Center
Sat 02:51:26 AM 39.1308 -88.4581 152° Southeast 449 517 41,000  Level Kansas City Center
Sat 02:52:26 AM 39.0186 -88.3792 151° Southeast 454 522 41,000  Level Kansas City Center
Sat 02:53:24 AM 38.9056 -88.3022 152° Southeast 458 527 41,000  Level Kansas City Center
Sat 02:53:54 AM 38.8383 -88.2561 152° Southeast 457 526 41,000  Level Indianapolis Center
Sat 02:54:24 AM 38.7931 -88.2242 151° Southeast 458 527 41,000  Level Kansas City Center
Sat 02:55:24 AM 38.6814 -88.1458 151° Southeast 458 527 41,000  Level Kansas City Center
Sat 02:55:55 AM 38.6131 -88.1006 153° Southeast 459 528 41,000 -132 Level Indianapolis Center
Sat 02:56:55 AM 38.5006 -88.0233 152° Southeast 460 529 40,800 -1,050 Descending Indianapolis Center
Sat 02:57:55 AM 38.3872 -87.9461 152° Southeast 461 531 38,900 -1,950 Descending Indianapolis Center
Sat 02:58:55 AM 38.2769 -87.8703 152° Southeast 454 522 36,900 -2,000 Descending Indianapolis Center
Sat 02:59:55 AM 38.1639 -87.7939 152° Southeast 458 527 34,900 -1,950 Descending Indianapolis Center
Sat 03:00:55 AM 38.0511 -87.7178 152° Southeast 460 529 33,000 -1,950 Descending Indianapolis Center
Sat 03:01:55 AM 37.9378 -87.6414 152° Southeast 463 533 31,000 -1,983 Descending Indianapolis Center
Sat 03:02:56 AM 37.8247 -87.5650 152° Southeast 461 531 29,000 -1,983 Descending Indianapolis Center
Sat 03:03:56 AM 37.7147 -87.4919 152° Southeast 455 524 27,000 -2,000 Descending Indianapolis Center
Sat 03:04:56 AM 37.6003 -87.4156 152° Southeast 459 528 25,000 -1,950 Descending Indianapolis Center
Sat 03:05:56 AM 37.4850 -87.3394 152° Southeast 461 531 23,100 -1,000 Descending Indianapolis Center
Sat 03:06:56 AM 37.3683 -87.2758 157° South 453 521 23,000 -50 Descending Indianapolis Center
Sat 03:07:56 AM 37.2503 -87.2197 159° South 449 517 23,000 -50 Level Indianapolis Center
Sat 03:08:56 AM 37.1317 -87.1622 159° South 451 519 22,900 -900 Descending Indianapolis Center
Sat 03:09:56 AM 37.0222 -87.1089 159° South 421 484 21,200 -2,033 Descending Indianapolis Center
Sat 03:10:57 AM 36.9150 -87.0578 159° South 410 472 18,800 -2,331 Descending Indianapolis Center
Sat 03:11:57 AM 36.8100 -87.0058 158° South 404 465 16,500 -2,350 Descending Indianapolis Center
Sat 03:12:57 AM 36.7033 -86.9547 159° South 405 466 14,100 -2,500 Descending Indianapolis Center
Sat 03:13:57 AM 36.6003 -86.9053 159° South 395 455 11,500 -2,450 Descending Indianapolis Center
Sat 03:14:57 AM 36.5231 -86.8619 156° South 369 425 9,200 -2,450 Descending Indianapolis Center
Sat 03:15:57 AM 36.4467 -86.8056 149° Southeast 318 366 6,600 -2,500 Descending Indianapolis Center
Sat 03:16:57 AM 36.3731 -86.7539 151° Southeast 300 345 4,200 -1,688 Descending Indianapolis Center
Sat 03:18:05 AM 36.2942 -86.6981 150° Southeast 283 326 3,000 -844 Descending Memphis Center
Sat 03:19:05 AM 36.2431 -86.6592 148° Southeast 240 276 2,400 -400 Descending Memphis Center
Sat 03:20:05 AM 36.2069 -86.6375 154° Southeast 174 200 2,200 -500 Descending Memphis Center
Sat 03:21:05 AM 36.1739 -86.6469 193° South 124 143 1,400 -750 Descending Memphis Center
Sat 03:22:05 AM 36.1367 -86.6589 195° South 130 150 700 -400 Descending Memphis Center
Sat 03:23:05 AM 36.1058 -86.6706 197° South 130 150 600 -100 Descending Memphis Center

Login

Don't have an account? Register now (free) for customized features, flight alerts, and more!